Time;durP1;ratioP1;P1;durP2;ratioP2;P2;SDS_P1;SDS_P2;PMS_P1;PMS_P2;Temp;Humidity;BMP_temperature;BMP_pressure;BME280_temperature;BME280_humidity;BME280_pressure;Samples;Min_cycle;Max_cycle;Signal;HPM_P1;HPM_P2
2024/04/23 00:02:00;;;;;;;7.85;5.10;;;0.30;99.90;;;;;;5399582;26;20000;-58
2024/04/23 00:04:26;;;;;;;8.45;5.13;;;0.30;99.90;;;;;;5402564;26;20000;-59
2024/04/23 00:07:01;;;;;;;7.88;4.43;;;0.30;99.90;;;;;;5402405;26;20133;-60
2024/04/23 00:09:28;;;;;;;7.97;4.70;;;0.20;99.90;;;;;;5402414;26;19995;-55
2024/04/23 00:11:54;;;;;;;7.93;4.60;;;0.10;99.90;;;;;;5398581;26;20009;-58
2024/04/23 00:14:20;;;;;;;6.63;4.75;;;0.10;99.90;;;;;;5407330;26;19995;-59
2024/04/23 00:17:06;;;;;;;6.20;4.43;;;0.10;99.90;;;;;;5399816;26;20014;-59
2024/04/23 00:19:32;;;;;;;6.63;4.25;;;0.10;99.90;;;;;;5403871;26;20003;-59
2024/04/23 00:21:58;;;;;;;5.85;3.95;;;0.10;99.90;;;;;;5408169;26;20438;-58
2024/04/23 00:24:24;;;;;;;6.43;4.90;;;0.00;99.90;;;;;;5393059;26;20019;-58
2024/04/23 00:27:00;;;;;;;6.88;4.80;;;0.00;99.90;;;;;;5406141;26;20430;-59
2024/04/23 00:29:27;;;;;;;5.88;4.38;;;0.00;99.90;;;;;;5404407;26;20003;-59
2024/04/23 00:31:53;;;;;;;6.63;4.30;;;0.00;99.90;;;;;;5405168;26;20478;-56
2024/04/23 00:34:18;;;;;;;6.10;4.10;;;0.00;99.90;;;;;;5408654;26;20014;-55
2024/04/23 00:37:10;;;;;;;6.28;4.45;;;0.00;99.90;;;;;;5408703;26;20007;-55
2024/04/23 00:39:36;;;;;;;5.20;4.13;;;0.00;99.90;;;;;;5403857;26;19995;-56
2024/04/23 00:42:01;;;;;;;5.47;4.50;;;0.00;99.90;;;;;;5403772;26;20465;-56
2024/04/23 00:44:27;;;;;;;6.63;4.32;;;-0.10;99.90;;;;;;5405133;26;20519;-56
2024/04/23 00:46:53;;;;;;;8.98;4.90;;;-0.20;99.90;;;;;;5402221;26;20014;-58
2024/04/23 00:49:19;;;;;;;6.65;5.10;;;-0.20;99.90;;;;;;5397548;26;20503;-56
2024/04/23 00:51:49;;;;;;;7.55;4.97;;;-0.20;99.90;;;;;;5368594;26;20016;-56
2024/04/23 00:54:17;;;;;;;9.85;5.30;;;-0.20;99.90;;;;;;5368634;26;20011;-55
2024/04/23 00:56:43;;;;;;;7.78;4.75;;;-0.30;99.90;;;;;;5365947;26;20073;-59
2024/04/23 00:59:12;;;;;;;9.05;5.43;;;-0.30;99.90;;;;;;5368262;26;20019;-58
2024/04/23 01:01:37;;;;;;;6.82;4.38;;;-0.30;99.90;;;;;;5367167;26;20077;-57
2024/04/23 01:04:05;;;;;;;8.18;4.82;;;-0.30;99.90;;;;;;5366794;26;19996;-58
2024/04/23 01:06:31;;;;;;;8.27;5.07;;;-0.30;99.90;;;;;;5366530;26;20753;-56
2024/04/23 01:08:56;;;;;;;8.02;4.45;;;-0.30;99.90;;;;;;5373900;26;20004;-58
2024/04/23 01:11:22;;;;;;;8.52;4.65;;;-0.30;99.90;;;;;;5333688;26;20011;-58
2024/04/23 01:13:48;;;;;;;5.15;3.92;;;-0.30;99.90;;;;;;5368857;26;20016;-57
2024/04/23 01:16:15;;;;;;;7.13;4.32;;;-0.30;99.90;;;;;;5369787;26;20007;-55
2024/04/23 01:18:42;;;;;;;7.18;4.32;;;-0.40;99.90;;;;;;5367767;26;20368;-57
2024/04/23 01:21:11;;;;;;;6.45;4.13;;;-0.40;99.90;;;;;;5371638;26;20542;-57
2024/04/23 01:23:53;;;;;;;6.65;4.53;;;-0.40;99.90;;;;;;5365163;26;20403;-59
2024/04/23 01:26:20;;;;;;;5.82;4.43;;;-0.40;99.90;;;;;;5370087;26;20074;-59
2024/04/23 01:28:46;;;;;;;7.75;4.43;;;-0.40;99.90;;;;;;5366576;26;19997;-58
2024/04/23 01:31:14;;;;;;;7.53;4.95;;;-0.30;99.90;;;;;;5366375;26;20000;-57
2024/04/23 01:33:41;;;;;;;7.15;4.60;;;-0.30;99.90;;;;;;5369210;26;20019;-58
2024/04/23 01:36:08;;;;;;;7.97;5.22;;;-0.40;99.90;;;;;;5367279;26;20012;-59
2024/04/23 01:38:36;;;;;;;7.38;5.25;;;-0.40;99.90;;;;;;5362894;26;20004;-58
2024/04/23 01:41:03;;;;;;;9.18;5.53;;;-0.40;99.90;;;;;;5369088;26;20444;-59
2024/04/23 01:43:29;;;;;;;8.57;5.18;;;-0.30;99.90;;;;;;5369460;26;20000;-58
2024/04/23 01:45:55;;;;;;;7.97;5.93;;;-0.40;99.90;;;;;;5365415;26;20008;-57
2024/04/23 01:48:22;;;;;;;7.28;5.03;;;-0.50;99.90;;;;;;5365593;26;20000;-58
2024/04/23 01:50:48;;;;;;;7.78;4.93;;;-0.50;99.90;;;;;;5390547;26;20063;-59
2024/04/23 01:53:13;;;;;;;5.95;4.35;;;-0.60;99.90;;;;;;5399466;26;20702;-58
2024/04/23 01:55:39;;;;;;;7.75;5.03;;;-0.60;99.90;;;;;;5403570;26;20000;-58
2024/04/23 01:58:05;;;;;;;11.27;5.25;;;-0.60;99.90;;;;;;5404315;26;20011;-58
2024/04/23 02:00:34;;;;;;;6.68;4.15;;;-0.60;99.90;;;;;;5430080;26;20000;-57
2024/04/23 02:03:00;;;;;;;5.55;4.15;;;-0.60;99.90;;;;;;5399331;26;20032;-59
2024/04/23 02:05:26;;;;;;;6.30;4.80;;;-0.60;99.90;;;;;;5408102;26;20584;-57
2024/04/23 02:07:52;;;;;;;8.77;4.68;;;-0.70;99.90;;;;;;5396847;26;20012;-58
2024/04/23 02:10:17;;;;;;;6.05;4.43;;;-0.70;99.90;;;;;;5406402;26;20238;-56
2024/04/23 02:12:43;;;;;;;8.50;4.95;;;-0.70;99.90;;;;;;5402873;26;20042;-57
2024/04/23 02:15:08;;;;;;;6.93;4.82;;;-0.70;99.90;;;;;;5404555;26;20340;-58
2024/04/23 02:17:35;;;;;;;8.52;4.70;;;-0.80;99.90;;;;;;5402373;26;19999;-57
2024/04/23 02:20:04;;;;;;;6.63;4.60;;;-0.80;99.90;;;;;;5401850;26;20473;-56
2024/04/23 02:22:29;;;;;;;6.03;4.50;;;-0.80;99.90;;;;;;5399634;26;20000;-58
2024/04/23 02:24:55;;;;;;;7.40;5.00;;;-0.80;99.90;;;;;;5404122;26;20040;-58
2024/04/23 02:27:20;;;;;;;7.78;5.63;;;-0.90;99.90;;;;;;5398044;26;20000;-58
2024/04/23 02:29:46;;;;;;;8.35;5.57;;;-0.90;99.90;;;;;;5405133;26;20018;-60
2024/04/23 02:32:11;;;;;;;9.45;5.25;;;-0.80;99.90;;;;;;5406843;26;20018;-59
2024/04/23 02:34:37;;;;;;;8.63;5.15;;;-0.80;99.90;;;;;;5409111;26;20617;-58
2024/04/23 02:37:03;;;;;;;8.02;5.30;;;-0.80;99.90;;;;;;5433385;26;20068;-60
2024/04/23 02:39:28;;;;;;;9.38;4.65;;;-0.80;99.90;;;;;;5403683;26;20004;-59
2024/04/23 02:41:54;;;;;;;7.20;4.93;;;-0.90;99.90;;;;;;5406549;26;20042;-58
2024/04/23 02:44:20;;;;;;;7.30;4.57;;;-0.90;99.90;;;;;;5402289;26;20452;-59
2024/04/23 02:46:46;;;;;;;9.88;5.80;;;-0.90;99.90;;;;;;5398692;26;20007;-59
2024/04/23 02:49:11;;;;;;;7.30;4.90;;;-0.90;99.90;;;;;;5406347;26;20027;-58
2024/04/23 02:51:54;;;;;;;8.15;5.28;;;-0.90;99.90;;;;;;5406403;26;19991;-60
2024/04/23 02:54:20;;;;;;;7.85;4.38;;;-0.90;99.90;;;;;;5402431;26;20406;-59
2024/04/23 02:56:48;;;;;;;9.82;5.55;;;-0.80;99.90;;;;;;5408287;26;19996;-58
2024/04/23 02:59:17;;;;;;;9.02;5.22;;;-0.80;99.90;;;;;;5399005;26;20071;-59
2024/04/23 03:01:44;;;;;;;9.73;5.85;;;-0.80;99.90;;;;;;5402621;26;19996;-58
2024/04/23 03:04:09;;;;;;;8.18;5.25;;;-0.80;99.90;;;;;;5401851;26;19999;-60
2024/04/23 03:06:35;;;;;;;8.02;5.63;;;-0.70;99.90;;;;;;5405384;26;20006;-59
2024/04/23 03:09:00;;;;;;;11.07;5.20;;;-0.80;99.90;;;;;;5406541;26;20010;-59
2024/04/23 03:11:26;;;;;;;9.10;5.70;;;-0.70;99.90;;;;;;5404157;26;20089;-57
2024/04/23 03:13:51;;;;;;;7.70;5.80;;;-0.80;99.90;;;;;;5402535;26;20045;-59
2024/04/23 03:16:17;;;;;;;7.05;5.30;;;-0.80;99.90;;;;;;5402804;26;20007;-59
2024/04/23 03:18:42;;;;;;;8.02;5.72;;;-0.90;99.90;;;;;;5399658;26;20506;-59
2024/04/23 03:21:08;;;;;;;7.22;5.38;;;-0.90;99.90;;;;;;5400814;26;19999;-59
2024/04/23 03:23:34;;;;;;;6.85;5.30;;;-0.90;99.90;;;;;;5397372;26;20000;-58
2024/04/23 03:25:59;;;;;;;9.32;5.32;;;-0.90;99.90;;;;;;5402789;26;19999;-59
2024/04/23 03:28:25;;;;;;;7.22;5.35;;;-1.00;99.90;;;;;;5407033;26;20418;-59
2024/04/23 03:30:50;;;;;;;9.18;6.00;;;-1.00;99.90;;;;;;5397967;26;20857;-55
2024/04/23 03:33:16;;;;;;;7.72;4.70;;;-1.00;99.90;;;;;;5402611;26;20411;-59
2024/04/23 03:35:41;;;;;;;8.52;5.50;;;-1.00;99.90;;;;;;5402497;26;20455;-59
2024/04/23 03:38:07;;;;;;;7.05;4.88;;;-1.00;99.90;;;;;;5397394;26;21263;-57
2024/04/23 03:40:32;;;;;;;11.02;5.38;;;-1.00;99.90;;;;;;5405996;26;20533;-60
2024/04/23 03:42:58;;;;;;;8.73;5.75;;;-1.10;99.90;;;;;;5401203;26;20418;-60
2024/04/23 03:45:23;;;;;;;6.53;4.20;;;-1.00;99.90;;;;;;5400593;26;20035;-60
2024/04/23 03:47:49;;;;;;;7.63;5.47;;;-1.00;99.90;;;;;;5403325;26;19999;-59
2024/04/23 03:50:14;;;;;;;7.03;4.90;;;-1.00;99.90;;;;;;5399619;26;20417;-60
2024/04/23 03:52:40;;;;;;;7.88;4.68;;;-1.00;99.90;;;;;;5401215;26;20001;-59
2024/04/23 03:55:06;;;;;;;5.78;4.53;;;-1.00;99.90;;;;;;5402775;26;20007;-59
2024/04/23 03:57:31;;;;;;;7.00;5.10;;;-1.10;99.90;;;;;;5402054;26;20003;-58
2024/04/23 03:59:57;;;;;;;6.82;5.07;;;-1.10;99.90;;;;;;5402495;26;19995;-59
2024/04/23 04:07:51;;;;;;;6.25;4.25;;;-1.20;99.90;;;;;;5401671;26;20083;-59
2024/04/23 04:10:17;;;;;;;6.10;3.97;;;-1.20;99.90;;;;;;5399814;26;20151;-59
2024/04/23 04:12:42;;;;;;;8.32;4.93;;;-1.20;99.90;;;;;;5403006;26;20011;-60
2024/04/23 04:15:08;;;;;;;7.38;4.47;;;-1.20;99.90;;;;;;5404372;26;20022;-58
2024/04/23 04:17:33;;;;;;;7.85;4.68;;;-1.20;99.90;;;;;;5405886;26;20010;-59
2024/04/23 04:19:59;;;;;;;7.50;4.95;;;-1.20;99.90;;;;;;5408017;26;20012;-59
2024/04/23 04:22:24;;;;;;;7.05;4.10;;;-1.20;99.90;;;;;;5407410;26;19996;-59
2024/04/23 04:24:50;;;;;;;6.32;4.10;;;-1.10;99.90;;;;;;5397623;26;20003;-59
2024/04/23 04:27:15;;;;;;;8.77;4.63;;;-1.00;99.90;;;;;;5399088;26;20031;-59
2024/04/23 04:29:41;;;;;;;7.60;4.57;;;-1.00;99.90;;;;;;5403728;26;20015;-61
2024/04/23 04:32:10;;;;;;;9.10;4.95;;;-1.00;99.90;;;;;;5402477;26;20015;-59
2024/04/23 04:34:35;;;;;;;7.30;4.63;;;-0.90;99.90;;;;;;5399875;26;19996;-60
2024/04/23 04:37:01;;;;;;;5.90;4.10;;;-0.80;99.90;;;;;;5405241;26;20017;-60
2024/04/23 04:39:26;;;;;;;6.22;4.35;;;-0.80;99.90;;;;;;5374073;26;20102;-60
2024/04/23 04:41:52;;;;;;;6.78;4.50;;;-0.80;99.90;;;;;;5402978;26;20015;-59
2024/04/23 04:44:17;;;;;;;7.43;4.40;;;-0.70;99.90;;;;;;5401296;26;20039;-60
2024/04/23 04:46:43;;;;;;;5.80;4.00;;;-0.70;99.90;;;;;;5372065;26;20011;-59
2024/04/23 04:49:08;;;;;;;6.80;4.60;;;-0.60;99.90;;;;;;5401020;26;20367;-60
2024/04/23 04:51:34;;;;;;;7.78;4.63;;;-0.60;99.90;;;;;;5401457;26;20479;-59
2024/04/23 04:53:59;;;;;;;8.63;4.90;;;-0.60;99.90;;;;;;5393717;26;19996;-61
2024/04/23 04:56:27;;;;;;;10.38;4.95;;;-0.50;99.90;;;;;;5403542;26;20460;-59
2024/04/23 04:58:53;;;;;;;6.82;5.13;;;-0.50;99.90;;;;;;5401848;26;19992;-59
2024/04/23 05:01:18;;;;;;;7.90;5.93;;;-0.50;99.90;;;;;;5402473;26;20056;-58
2024/04/23 05:03:44;;;;;;;8.18;5.20;;;-0.50;99.90;;;;;;5403288;26;20011;-57
2024/04/23 05:06:09;;;;;;;7.68;5.55;;;-0.40;99.90;;;;;;5401463;26;20003;-59
2024/04/23 05:08:35;;;;;;;7.85;6.25;;;-0.50;99.90;;;;;;5403535;26;20006;-59
2024/04/23 05:11:00;;;;;;;7.35;5.43;;;-0.50;99.90;;;;;;5398914;26;20078;-58
2024/04/23 05:13:26;;;;;;;8.18;5.70;;;-0.40;99.90;;;;;;5405010;26;20073;-60
2024/04/23 05:15:52;;;;;;;9.75;5.47;;;-0.40;99.90;;;;;;5402457;26;20000;-57
2024/04/23 05:18:17;;;;;;;8.48;5.78;;;-0.40;99.90;;;;;;5400540;26;20003;-59
2024/04/23 05:20:43;;;;;;;6.30;4.82;;;-0.40;99.90;;;;;;5400951;26;20188;-60
2024/04/23 05:23:09;;;;;;;7.50;5.15;;;-0.40;99.90;;;;;;5403996;26;19999;-58
2024/04/23 05:25:34;;;;;;;10.20;5.15;;;-0.30;99.90;;;;;;5401039;26;20000;-59
2024/04/23 05:28:00;;;;;;;8.90;4.88;;;-0.30;99.90;;;;;;5403730;26;20010;-58
2024/04/23 05:33:10;;;;;;;6.13;4.60;;;-0.20;99.90;;;;;;5400434;26;20030;-57
2024/04/23 05:35:35;;;;;;;8.35;5.53;;;-0.20;99.90;;;;;;5400621;26;20027;-58
2024/04/23 05:38:01;;;;;;;8.02;5.45;;;-0.10;99.90;;;;;;5400817;26;20043;-55
2024/04/23 05:40:26;;;;;;;11.27;6.57;;;-0.10;99.90;;;;;;5397149;26;20003;-58
2024/04/23 05:42:52;;;;;;;29.92;18.02;;;0.00;99.90;;;;;;5403436;26;20364;-58
2024/04/23 05:45:17;;;;;;;27.42;15.50;;;0.10;99.90;;;;;;5401103;26;20018;-57
2024/04/23 05:48:21;;;;;;;32.85;19.02;;;0.20;99.90;;;;;;5400356;26;20623;-56
2024/04/23 05:51:24;;;;;;;25.88;17.00;;;0.30;99.90;;;;;;5369056;26;19996;-58
2024/04/23 05:54:27;;;;;;;33.75;19.33;;;0.50;99.90;;;;;;5366377;26;19992;-57
2024/04/23 05:56:53;;;;;;;23.02;13.77;;;0.60;99.90;;;;;;5362915;26;20437;-58
2024/04/23 05:59:18;;;;;;;10.85;7.32;;;0.80;99.90;;;;;;5367532;26;20000;-56
2024/04/23 06:01:44;;;;;;;7.63;6.47;;;0.90;99.90;;;;;;5362784;26;20000;-58
2024/04/23 06:04:09;;;;;;;8.30;5.88;;;1.00;99.90;;;;;;5365028;26;20012;-55
2024/04/23 06:06:35;;;;;;;8.55;6.13;;;1.00;99.90;;;;;;5362277;26;19996;-57
2024/04/23 06:09:00;;;;;;;8.40;5.43;;;1.10;99.90;;;;;;5357999;26;20004;-56
2024/04/23 06:11:26;;;;;;;6.75;5.18;;;1.20;99.90;;;;;;5337560;26;19997;-56
2024/04/23 06:14:08;;;;;;;5.70;4.47;;;1.40;99.90;;;;;;5364157;26;20638;-57
2024/04/23 06:16:33;;;;;;;5.68;4.60;;;1.50;99.90;;;;;;5363568;26;20011;-54
2024/04/23 06:18:59;;;;;;;5.60;4.55;;;1.60;99.90;;;;;;5366031;26;19996;-53
2024/04/23 06:21:25;;;;;;;5.78;4.22;;;1.80;99.90;;;;;;5362508;26;20019;-58
2024/04/23 06:23:50;;;;;;;5.53;4.57;;;2.00;99.90;;;;;;5332241;26;20011;-56
2024/04/23 06:26:16;;;;;;;5.22;3.97;;;2.20;99.90;;;;;;5363236;26;20012;-57
2024/04/23 06:28:41;;;;;;;7.75;4.40;;;2.30;99.90;;;;;;5363360;26;20015;-55
2024/04/23 06:31:11;;;;;;;9.38;5.05;;;2.40;99.90;;;;;;5339776;26;20015;-54
2024/04/23 06:33:36;;;;;;;7.88;4.10;;;2.60;99.90;;;;;;5362461;26;20001;-56
2024/04/23 06:36:02;;;;;;;6.25;4.05;;;2.70;99.90;;;;;;5360365;26;20508;-55
2024/04/23 06:38:28;;;;;;;6.57;3.83;;;2.90;99.90;;;;;;5364546;26;20032;-54
2024/04/23 06:40:53;;;;;;;6.05;4.30;;;3.00;99.90;;;;;;5372928;26;20004;-56
2024/04/23 06:43:19;;;;;;;4.25;3.55;;;3.10;99.90;;;;;;5364859;26;20009;-55
2024/04/23 06:45:44;;;;;;;5.07;4.03;;;3.30;99.90;;;;;;5370256;26;20105;-52
2024/04/23 06:48:15;;;;;;;8.95;3.92;;;3.40;99.90;;;;;;5364822;26;20023;-55
2024/04/23 06:50:41;;;;;;;4.55;3.67;;;3.60;99.90;;;;;;5398386;26;19991;-53
2024/04/23 06:53:06;;;;;;;5.90;3.70;;;3.90;99.90;;;;;;5397145;26;19999;-50
2024/04/23 06:55:32;;;;;;;4.43;3.30;;;4.10;99.90;;;;;;5398980;26;19995;-55
2024/04/23 06:57:57;;;;;;;4.68;3.63;;;4.40;99.90;;;;;;5403219;26;20073;-53
2024/04/23 07:00:23;;;;;;;5.75;3.67;;;4.60;99.90;;;;;;5401728;26;20000;-54
2024/04/23 07:02:49;;;;;;;4.35;3.40;;;4.80;99.90;;;;;;5395127;26;20351;-51
2024/04/23 07:05:14;;;;;;;6.35;3.15;;;5.00;99.90;;;;;;5399541;26;20119;-52
2024/04/23 07:07:40;;;;;;;5.10;3.22;;;5.20;99.90;;;;;;5399208;26;20016;-53
2024/04/23 07:10:07;;;;;;;4.55;3.25;;;5.40;99.90;;;;;;5396795;26;20007;-57
2024/04/23 07:12:33;;;;;;;10.05;3.25;;;5.60;99.90;;;;;;5398568;26;20004;-50
2024/04/23 07:14:58;;;;;;;4.45;2.92;;;5.80;99.90;;;;;;5399458;26;20008;-55
2024/04/23 07:17:24;;;;;;;4.32;3.67;;;6.00;99.90;;;;;;5403720;26;19999;-52
2024/04/23 07:19:50;;;;;;;4.72;3.20;;;6.20;99.90;;;;;;5405853;26;20010;-55
2024/04/23 07:22:15;;;;;;;4.88;2.88;;;6.30;99.90;;;;;;5399399;26;20435;-54
2024/04/23 07:24:42;;;;;;;4.60;2.95;;;6.50;99.90;;;;;;5404678;26;20318;-56
2024/04/23 07:27:08;;;;;;;4.47;3.65;;;6.70;99.90;;;;;;5409021;26;20325;-56
2024/04/23 07:29:33;;;;;;;3.58;3.00;;;6.90;99.90;;;;;;5405726;26;20009;-52
2024/04/23 07:31:59;;;;;;;3.65;3.08;;;6.90;99.90;;;;;;5406968;26;20018;-56
2024/04/23 07:34:24;;;;;;;5.35;2.80;;;6.80;99.90;;;;;;5401473;26;19992;-55
2024/04/23 07:36:50;;;;;;;3.55;2.97;;;6.80;99.90;;;;;;5405430;26;20478;-51
2024/04/23 07:39:16;;;;;;;3.65;2.45;;;6.80;99.90;;;;;;5399693;26;19992;-55
2024/04/23 07:41:41;;;;;;;4.60;3.35;;;7.00;99.90;;;;;;5404384;26;20725;-55
2024/04/23 07:44:07;;;;;;;3.65;3.20;;;7.10;99.90;;;;;;5402871;26;20019;-52
2024/04/23 07:46:32;;;;;;;3.38;3.03;;;7.30;99.90;;;;;;5404017;26;20018;-55
2024/04/23 07:48:58;;;;;;;5.32;3.20;;;7.60;99.90;;;;;;5405863;26;19996;-55
2024/04/23 07:51:24;;;;;;;3.05;2.63;;;7.60;99.90;;;;;;5400175;26;20009;-54
2024/04/23 07:53:49;;;;;;;2.97;2.45;;;7.40;99.90;;;;;;5399209;26;20007;-53
2024/04/23 07:56:16;;;;;;;4.55;2.65;;;7.10;99.90;;;;;;5403471;26;20089;-54
2024/04/23 07:58:42;;;;;;;3.00;2.58;;;6.90;99.90;;;;;;5408367;26;20075;-55
2024/04/23 08:01:07;;;;;;;3.20;2.80;;;6.80;99.90;;;;;;5399967;26;20739;-55
2024/04/23 08:03:34;;;;;;;4.65;3.10;;;6.90;99.90;;;;;;5407253;26;20046;-50
2024/04/23 08:06:02;;;;;;;5.07;2.95;;;7.20;99.90;;;;;;5399851;26;20463;-53
2024/04/23 08:08:27;;;;;;;4.85;2.97;;;7.60;99.90;;;;;;5403085;26;20025;-55
2024/04/23 08:10:53;;;;;;;3.70;2.67;;;8.00;99.90;;;;;;5400002;26;19996;-55
2024/04/23 08:13:19;;;;;;;3.22;2.72;;;8.30;99.90;;;;;;5400950;26;20009;-54
2024/04/23 08:15:44;;;;;;;5.80;3.22;;;8.50;99.90;;;;;;5399586;26;20014;-53
2024/04/23 08:18:10;;;;;;;3.00;2.70;;;8.60;99.90;;;;;;5397407;26;19999;-51
2024/04/23 08:20:35;;;;;;;4.22;2.97;;;8.40;99.90;;;;;;5403829;26;20014;-51
2024/04/23 08:23:01;;;;;;;2.70;2.50;;;8.30;99.90;;;;;;5406928;26;20006;-51
2024/04/23 08:25:27;;;;;;;3.35;2.08;;;8.50;99.90;;;;;;5402447;26;20014;-55
2024/04/23 08:27:52;;;;;;;4.80;2.75;;;8.60;99.90;;;;;;5402396;26;20003;-57
2024/04/23 08:30:21;;;;;;;2.33;2.13;;;8.70;99.90;;;;;;5401531;26;20368;-53
2024/04/23 08:32:47;;;;;;;3.45;2.47;;;8.80;99.90;;;;;;5401174;26;20011;-55
2024/04/23 08:35:13;;;;;;;3.25;2.35;;;8.80;99.90;;;;;;5401403;26;20014;-56
2024/04/23 08:37:40;;;;;;;4.07;2.78;;;8.90;99.90;;;;;;5402059;26;20007;-52
2024/04/23 08:40:07;;;;;;;2.35;2.15;;;9.00;99.90;;;;;;5401970;26;20548;-53
2024/04/23 08:42:38;;;;;;;4.25;2.40;;;9.10;99.90;;;;;;5398798;26;20000;-55
2024/04/23 08:45:05;;;;;;;3.15;2.50;;;9.30;99.90;;;;;;5403086;26;20015;-55
2024/04/23 08:47:32;;;;;;;2.55;2.35;;;9.30;99.90;;;;;;5398202;26;19996;-53
2024/04/23 08:49:58;;;;;;;3.67;2.85;;;9.40;99.90;;;;;;5403409;26;20007;-56
2024/04/23 08:52:24;;;;;;;3.60;2.58;;;9.50;99.90;;;;;;5397084;26;20000;-56
2024/04/23 08:54:49;;;;;;;3.13;2.63;;;9.60;99.90;;;;;;5401938;26;20032;-56
2024/04/23 08:57:18;;;;;;;3.78;2.60;;;9.50;99.90;;;;;;5401764;26;22032;-54
2024/04/23 08:59:44;;;;;;;3.13;2.35;;;9.60;99.90;;;;;;5403402;26;19999;-57
2024/04/23 09:02:19;;;;;;;3.17;2.20;;;9.80;99.90;;;;;;5404953;26;20015;-56
2024/04/23 09:04:45;;;;;;;3.00;2.55;;;10.00;99.90;;;;;;5397856;26;19995;-53
2024/04/23 09:07:12;;;;;;;2.58;2.30;;;10.20;99.90;;;;;;5403855;26;19995;-53
2024/04/23 09:09:38;;;;;;;3.00;2.20;;;10.20;99.90;;;;;;5401421;26;19999;-55
2024/04/23 09:12:05;;;;;;;2.50;2.03;;;10.30;99.90;;;;;;5402974;26;20667;-56
2024/04/23 09:14:31;;;;;;;3.33;2.10;;;10.30;99.90;;;;;;5399827;26;20010;-56
2024/04/23 09:16:56;;;;;;;2.88;2.35;;;10.40;99.90;;;;;;5403498;26;19999;-55
2024/04/23 09:19:22;;;;;;;2.95;2.00;;;10.50;99.90;;;;;;5398127;26;19995;-58
2024/04/23 09:21:48;;;;;;;2.08;1.88;;;10.30;99.90;;;;;;5395319;26;20008;-54
2024/04/23 09:24:15;;;;;;;2.30;2.10;;;10.20;99.90;;;;;;5394588;26;20014;-56
2024/04/23 09:26:43;;;;;;;2.33;2.13;;;10.10;99.90;;;;;;5408916;26;20026;-55
2024/04/23 09:29:09;;;;;;;4.25;2.22;;;9.90;99.90;;;;;;5402830;26;20010;-54
2024/04/23 09:31:38;;;;;;;2.50;2.28;;;9.90;99.90;;;;;;5402747;26;20000;-56
2024/04/23 09:34:04;;;;;;;2.10;1.90;;;10.10;99.90;;;;;;5401038;26;19996;-54
2024/04/23 09:36:32;;;;;;;2.17;1.98;;;10.10;99.90;;;;;;5401707;26;20155;-54
2024/04/23 09:39:04;;;;;;;2.65;1.50;;;10.30;99.90;;;;;;5395797;26;20664;-54
2024/04/23 09:41:31;;;;;;;1.70;1.60;;;10.30;99.90;;;;;;5392968;26;19992;-53
2024/04/23 09:43:58;;;;;;;3.88;1.88;;;10.30;99.90;;;;;;5398336;26;20000;-54
2024/04/23 09:46:25;;;;;;;1.80;1.70;;;10.40;99.90;;;;;;5397011;26;20004;-51
2024/04/23 09:48:52;;;;;;;2.63;1.88;;;10.50;99.90;;;;;;5399176;26;20084;-53
2024/04/23 09:51:19;;;;;;;3.42;2.00;;;10.40;99.90;;;;;;5399389;26;20014;-58
2024/04/23 09:53:44;;;;;;;3.15;1.88;;;10.40;99.90;;;;;;5400538;26;20399;-56
2024/04/23 09:56:12;;;;;;;2.22;2.00;;;10.20;99.90;;;;;;5397201;26;19995;-53
2024/04/23 09:58:39;;;;;;;3.20;1.90;;;9.90;99.90;;;;;;5397687;26;20012;-56
2024/04/23 10:01:05;;;;;;;4.03;1.63;;;9.50;99.90;;;;;;5400834;26;20019;-56
2024/04/23 10:03:34;;;;;;;2.95;1.70;;;9.30;99.90;;;;;;5401982;26;20466;-55
2024/04/23 10:06:04;;;;;;;2.95;1.83;;;9.30;99.90;;;;;;5401595;26;19999;-55
2024/04/23 10:08:51;;;;;;;2.15;1.92;;;9.30;99.90;;;;;;5397931;26;20011;-55
2024/04/23 10:11:32;;;;;;;1.33;1.23;;;9.10;99.90;;;;;;5398601;26;19995;-55
2024/04/23 10:14:25;;;;;;;2.35;1.70;;;9.10;99.90;;;;;;5400091;26;20071;-52
2024/04/23 10:17:00;;;;;;;2.50;2.15;;;9.20;99.90;;;;;;5391794;26;19995;-55
2024/04/23 10:19:29;;;;;;;2.15;1.80;;;9.10;99.90;;;;;;5401600;26;20068;-53
2024/04/23 10:21:57;;;;;;;2.45;2.22;;;9.10;99.90;;;;;;5396805;26;20014;-56
2024/04/23 10:24:24;;;;;;;2.83;2.38;;;9.20;99.90;;;;;;5399623;26;20073;-54
2024/04/23 10:26:50;;;;;;;2.42;2.03;;;9.10;99.90;;;;;;5401972;26;20011;-54
2024/04/23 10:29:16;;;;;;;5.43;1.95;;;9.20;99.90;;;;;;5401356;26;20327;-56
2024/04/23 10:31:42;;;;;;;2.72;1.65;;;9.20;99.90;;;;;;5400510;26;19996;-57
2024/04/23 10:34:08;;;;;;;1.85;1.75;;;9.30;99.90;;;;;;5403095;26;20545;-55
2024/04/23 10:36:40;;;;;;;3.80;2.10;;;9.30;99.90;;;;;;5397769;26;20024;-54
2024/04/23 10:39:07;;;;;;;2.75;2.03;;;9.30;99.90;;;;;;5400277;26;20061;-55
2024/04/23 10:41:37;;;;;;;2.00;1.80;;;9.40;99.90;;;;;;5402148;26;20373;-56
2024/04/23 10:44:06;;;;;;;2.35;1.88;;;9.30;99.90;;;;;;5397534;26;20490;-56
2024/04/23 10:46:31;;;;;;;6.18;2.65;;;9.00;99.90;;;;;;5397433;26;20004;-57
2024/04/23 10:48:57;;;;;;;2.70;1.90;;;8.90;99.90;;;;;;5407316;26;20467;-56
2024/04/23 10:51:25;;;;;;;3.50;2.10;;;8.90;99.90;;;;;;5399121;26;20142;-56
2024/04/23 10:53:51;;;;;;;2.53;1.88;;;8.70;99.90;;;;;;5407339;26;20091;-57
2024/04/23 10:56:26;;;;;;;2.80;1.83;;;8.50;99.90;;;;;;5401530;26;20011;-55
2024/04/23 10:59:01;;;;;;;3.15;2.15;;;8.40;99.90;;;;;;5404171;26;20011;-54
2024/04/23 11:01:26;;;;;;;3.15;2.53;;;8.30;99.90;;;;;;5403341;26;20003;-54
2024/04/23 11:04:05;;;;;;;2.83;1.92;;;8.10;99.90;;;;;;5407481;26;20000;-58
2024/04/23 11:06:37;;;;;;;4.47;2.45;;;8.10;99.90;;;;;;5405029;26;19992;-56
2024/04/23 11:09:20;;;;;;;2.90;2.55;;;8.00;99.90;;;;;;5407955;26;20424;-57
2024/04/23 11:11:56;;;;;;;3.95;2.78;;;8.00;99.90;;;;;;5404392;26;20007;-55
2024/04/23 11:14:35;;;;;;;4.30;2.67;;;8.00;99.90;;;;;;5402402;26;20015;-51
2024/04/23 11:17:05;;;;;;;5.57;3.42;;;7.80;99.90;;;;;;5370670;26;19996;-55
2024/04/23 11:19:40;;;;;;;3.60;3.15;;;7.70;99.90;;;;;;5403440;26;20014;-56
2024/04/23 11:22:10;;;;;;;4.28;2.92;;;7.60;99.90;;;;;;5403829;26;20019;-56
2024/04/23 11:24:54;;;;;;;4.85;3.38;;;7.70;99.90;;;;;;5401147;26;20378;-56
2024/04/23 11:27:20;;;;;;;4.22;2.97;;;7.80;99.90;;;;;;5401569;26;20113;-56
2024/04/23 11:29:47;;;;;;;4.35;2.67;;;7.80;99.90;;;;;;5403874;26;20336;-56
2024/04/23 11:32:14;;;;;;;5.55;3.30;;;7.90;99.90;;;;;;5404364;26;19996;-55
2024/04/23 11:34:46;;;;;;;4.85;2.90;;;7.90;99.90;;;;;;5402738;26;20016;-56
2024/04/23 11:37:26;;;;;;;5.30;3.00;;;7.90;99.90;;;;;;5403797;26;20397;-56
2024/04/23 11:39:58;;;;;;;3.10;2.70;;;8.00;99.90;;;;;;5401971;26;20557;-53
2024/04/23 11:42:28;;;;;;;3.53;2.95;;;8.10;99.90;;;;;;5401517;26;19999;-55
2024/04/23 11:44:57;;;;;;;4.38;2.40;;;8.20;99.90;;;;;;5405334;26;20359;-55
2024/04/23 11:47:27;;;;;;;3.25;2.33;;;8.30;99.90;;;;;;5403817;26;19996;-56
2024/04/23 11:49:53;;;;;;;3.65;2.88;;;8.40;99.90;;;;;;5406458;26;20046;-56
2024/04/23 11:52:23;;;;;;;6.10;3.10;;;8.50;99.90;;;;;;5401768;26;20020;-54
2024/04/23 11:54:50;;;;;;;3.08;2.35;;;8.50;99.90;;;;;;5399996;26;19996;-57
2024/04/23 11:57:18;;;;;;;3.55;2.65;;;8.60;99.90;;;;;;5402042;26;20018;-55
2024/04/23 11:59:45;;;;;;;2.50;2.20;;;8.70;99.90;;;;;;5408080;26;20018;-55
2024/04/23 12:02:11;;;;;;;5.53;2.80;;;8.70;99.90;;;;;;5402994;26;20011;-56
2024/04/23 12:04:38;;;;;;;2.85;2.28;;;8.90;99.90;;;;;;5400691;26;20006;-54
2024/04/23 12:07:04;;;;;;;2.50;2.30;;;8.90;99.90;;;;;;5396907;26;20018;-56
2024/04/23 12:09:31;;;;;;;2.65;2.45;;;9.00;99.90;;;;;;5402985;26;20353;-51
2024/04/23 12:11:58;;;;;;;2.97;2.58;;;9.00;99.90;;;;;;5402365;26;19999;-53
2024/04/23 12:14:25;;;;;;;4.78;2.42;;;9.10;99.90;;;;;;5401811;26;20007;-55
2024/04/23 12:16:51;;;;;;;4.88;2.60;;;9.20;99.90;;;;;;5401980;26;19999;-53
2024/04/23 12:19:17;;;;;;;4.72;2.45;;;9.40;99.90;;;;;;5401752;26;20010;-53
2024/04/23 12:21:43;;;;;;;3.63;2.63;;;9.50;99.90;;;;;;5400736;26;20068;-58
2024/04/23 12:24:14;;;;;;;2.65;2.25;;;9.60;99.90;;;;;;5399569;26;20010;-57
2024/04/23 12:26:40;;;;;;;4.05;2.80;;;9.70;99.90;;;;;;5404716;26;20006;-56
2024/04/23 12:29:06;;;;;;;3.83;2.25;;;9.70;99.90;;;;;;5401798;26;20000;-54
2024/04/23 12:31:32;;;;;;;2.58;2.00;;;9.60;98.70;;;;;;5403003;26;19995;-56
2024/04/23 12:33:58;;;;;;;2.50;2.30;;;9.50;99.80;;;;;;5399892;26;20014;-53
2024/04/23 12:36:24;;;;;;;8.43;3.00;;;9.30;99.90;;;;;;5404391;26;20114;-54
2024/04/23 12:38:49;;;;;;;2.60;2.22;;;9.30;99.90;;;;;;5399164;26;20010;-56
2024/04/23 12:41:20;;;;;;;3.13;2.33;;;9.10;98.70;;;;;;5398842;26;19999;-53
2024/04/23 12:43:50;;;;;;;3.42;2.40;;;9.00;99.90;;;;;;5401856;26;19996;-56
2024/04/23 12:46:17;;;;;;;4.13;2.92;;;9.00;99.90;;;;;;5401471;26;20042;-56
2024/04/23 12:48:43;;;;;;;2.50;2.10;;;9.00;99.90;;;;;;5402774;26;20003;-57
2024/04/23 12:51:10;;;;;;;4.13;2.20;;;9.00;99.90;;;;;;5400087;26;20208;-55
2024/04/23 12:53:36;;;;;;;4.60;2.40;;;9.00;99.20;;;;;;5402396;26;20011;-57
2024/04/23 12:56:02;;;;;;;4.03;2.33;;;9.00;99.90;;;;;;5400426;26;20127;-53
2024/04/23 12:58:30;;;;;;;3.95;2.40;;;9.00;99.90;;;;;;5402760;26;20014;-55
2024/04/23 13:00:56;;;;;;;3.75;2.72;;;8.80;99.90;;;;;;5398872;26;20007;-56
2024/04/23 13:03:24;;;;;;;4.68;2.70;;;8.70;99.90;;;;;;5405611;26;19999;-55